sensor_id;sensor_type;location;lat;lon;timestamp;P1;durP1;ratioP1;P2;durP2;ratioP2
52268;SDS011;38224;50.950;4.100;2023-04-25T00:00:56;28.67;;;6.63;;
52268;SDS011;38224;50.950;4.100;2023-04-25T00:03:21;28.08;;;7.13;;
52268;SDS011;38224;50.950;4.100;2023-04-25T00:05:47;31.67;;;7.32;;
52268;SDS011;38224;50.950;4.100;2023-04-25T00:08:12;26.65;;;6.40;;
52268;SDS011;38224;50.950;4.100;2023-04-25T00:10:38;34.10;;;7.00;;
52268;SDS011;38224;50.950;4.100;2023-04-25T00:13:03;28.20;;;6.82;;
52268;SDS011;38224;50.950;4.100;2023-04-25T00:15:28;19.23;;;5.93;;
52268;SDS011;38224;50.950;4.100;2023-04-25T00:17:57;27.05;;;7.13;;
52268;SDS011;38224;50.950;4.100;2023-04-25T00:20:22;33.65;;;7.93;;
52268;SDS011;38224;50.950;4.100;2023-04-25T00:22:48;19.35;;;6.72;;
52268;SDS011;38224;50.950;4.100;2023-04-25T00:25:13;28.65;;;6.55;;
52268;SDS011;38224;50.950;4.100;2023-04-25T00:27:39;28.57;;;6.87;;
52268;SDS011;38224;50.950;4.100;2023-04-25T00:30:04;22.30;;;7.18;;
52268;SDS011;38224;50.950;4.100;2023-04-25T00:32:32;31.70;;;8.25;;
52268;SDS011;38224;50.950;4.100;2023-04-25T00:34:57;26.88;;;7.20;;
52268;SDS011;38224;50.950;4.100;2023-04-25T00:37:23;34.22;;;8.65;;
52268;SDS011;38224;50.950;4.100;2023-04-25T00:39:48;35.67;;;9.10;;
52268;SDS011;38224;50.950;4.100;2023-04-25T00:42:13;35.60;;;9.27;;
52268;SDS011;38224;50.950;4.100;2023-04-25T00:44:39;19.48;;;7.00;;
52268;SDS011;38224;50.950;4.100;2023-04-25T00:47:04;29.27;;;8.93;;
52268;SDS011;38224;50.950;4.100;2023-04-25T00:49:29;27.00;;;8.68;;
52268;SDS011;38224;50.950;4.100;2023-04-25T00:51:56;26.23;;;6.90;;
52268;SDS011;38224;50.950;4.100;2023-04-25T00:54:21;24.33;;;7.57;;
52268;SDS011;38224;50.950;4.100;2023-04-25T00:56:47;27.98;;;7.07;;
52268;SDS011;38224;50.950;4.100;2023-04-25T00:59:12;28.53;;;6.57;;
52268;SDS011;38224;50.950;4.100;2023-04-25T01:01:38;24.42;;;7.10;;
52268;SDS011;38224;50.950;4.100;2023-04-25T01:04:04;25.85;;;7.40;;
52268;SDS011;38224;50.950;4.100;2023-04-25T01:06:29;38.90;;;7.15;;
52268;SDS011;38224;50.950;4.100;2023-04-25T01:08:56;27.17;;;7.18;;
52268;SDS011;38224;50.950;4.100;2023-04-25T01:11:21;32.55;;;7.47;;
52268;SDS011;38224;50.950;4.100;2023-04-25T01:13:46;33.07;;;7.17;;
52268;SDS011;38224;50.950;4.100;2023-04-25T01:16:11;29.00;;;6.80;;
52268;SDS011;38224;50.950;4.100;2023-04-25T01:18:38;30.40;;;6.60;;
52268;SDS011;38224;50.950;4.100;2023-04-25T01:21:07;33.30;;;8.35;;
52268;SDS011;38224;50.950;4.100;2023-04-25T01:23:33;29.42;;;6.80;;
52268;SDS011;38224;50.950;4.100;2023-04-25T01:25:59;30.73;;;7.40;;
52268;SDS011;38224;50.950;4.100;2023-04-25T01:28:25;26.23;;;6.75;;
52268;SDS011;38224;50.950;4.100;2023-04-25T01:30:50;22.63;;;7.15;;
52268;SDS011;38224;50.950;4.100;2023-04-25T01:33:16;24.05;;;6.85;;
52268;SDS011;38224;50.950;4.100;2023-04-25T01:35:42;21.98;;;6.60;;
52268;SDS011;38224;50.950;4.100;2023-04-25T01:38:08;28.63;;;6.80;;
52268;SDS011;38224;50.950;4.100;2023-04-25T01:40:33;31.80;;;7.35;;
52268;SDS011;38224;50.950;4.100;2023-04-25T01:42:59;33.67;;;6.90;;
52268;SDS011;38224;50.950;4.100;2023-04-25T01:45:24;32.40;;;6.50;;
52268;SDS011;38224;50.950;4.100;2023-04-25T01:47:50;25.52;;;7.07;;
52268;SDS011;38224;50.950;4.100;2023-04-25T01:50:16;28.98;;;6.78;;
52268;SDS011;38224;50.950;4.100;2023-04-25T01:52:41;31.38;;;6.95;;
52268;SDS011;38224;50.950;4.100;2023-04-25T01:55:07;29.23;;;6.85;;
52268;SDS011;38224;50.950;4.100;2023-04-25T01:57:32;26.75;;;7.00;;
52268;SDS011;38224;50.950;4.100;2023-04-25T01:59:58;27.70;;;6.80;;
52268;SDS011;38224;50.950;4.100;2023-04-25T02:02:24;27.05;;;7.88;;
52268;SDS011;38224;50.950;4.100;2023-04-25T02:04:49;33.78;;;7.82;;
52268;SDS011;38224;50.950;4.100;2023-04-25T02:07:14;32.00;;;7.47;;
52268;SDS011;38224;50.950;4.100;2023-04-25T02:09:40;39.55;;;8.00;;
52268;SDS011;38224;50.950;4.100;2023-04-25T02:12:07;30.20;;;7.13;;
52268;SDS011;38224;50.950;4.100;2023-04-25T02:14:32;27.80;;;6.70;;
52268;SDS011;38224;50.950;4.100;2023-04-25T02:16:57;26.53;;;6.77;;
52268;SDS011;38224;50.950;4.100;2023-04-25T02:19:23;25.92;;;7.35;;
52268;SDS011;38224;50.950;4.100;2023-04-25T02:21:48;25.70;;;6.97;;
52268;SDS011;38224;50.950;4.100;2023-04-25T02:24:13;36.63;;;7.32;;
52268;SDS011;38224;50.950;4.100;2023-04-25T02:26:39;29.08;;;6.70;;
52268;SDS011;38224;50.950;4.100;2023-04-25T02:29:04;31.55;;;7.18;;
52268;SDS011;38224;50.950;4.100;2023-04-25T02:31:29;32.72;;;7.88;;
52268;SDS011;38224;50.950;4.100;2023-04-25T02:33:55;34.90;;;7.30;;
52268;SDS011;38224;50.950;4.100;2023-04-25T02:36:20;36.63;;;7.70;;
52268;SDS011;38224;50.950;4.100;2023-04-25T02:38:45;28.53;;;7.17;;
52268;SDS011;38224;50.950;4.100;2023-04-25T02:41:10;31.23;;;6.72;;
52268;SDS011;38224;50.950;4.100;2023-04-25T02:43:36;34.67;;;7.73;;
52268;SDS011;38224;50.950;4.100;2023-04-25T02:46:01;35.42;;;8.18;;
52268;SDS011;38224;50.950;4.100;2023-04-25T02:48:26;34.55;;;7.40;;
52268;SDS011;38224;50.950;4.100;2023-04-25T02:50:52;26.95;;;6.97;;
52268;SDS011;38224;50.950;4.100;2023-04-25T02:53:17;31.37;;;7.77;;
52268;SDS011;38224;50.950;4.100;2023-04-25T02:55:42;31.98;;;6.78;;
52268;SDS011;38224;50.950;4.100;2023-04-25T02:58:07;26.67;;;6.07;;
52268;SDS011;38224;50.950;4.100;2023-04-25T03:00:33;29.33;;;6.53;;
52268;SDS011;38224;50.950;4.100;2023-04-25T03:02:58;30.70;;;7.03;;
52268;SDS011;38224;50.950;4.100;2023-04-25T03:05:23;23.93;;;6.20;;
52268;SDS011;38224;50.950;4.100;2023-04-25T03:07:48;36.95;;;6.97;;
52268;SDS011;38224;50.950;4.100;2023-04-25T03:10:14;43.92;;;7.47;;
52268;SDS011;38224;50.950;4.100;2023-04-25T03:12:39;32.87;;;6.13;;
52268;SDS011;38224;50.950;4.100;2023-04-25T03:15:05;24.67;;;5.93;;
52268;SDS011;38224;50.950;4.100;2023-04-25T03:17:30;30.90;;;6.55;;
52268;SDS011;38224;50.950;4.100;2023-04-25T03:19:56;30.98;;;7.25;;
52268;SDS011;38224;50.950;4.100;2023-04-25T03:22:22;24.50;;;6.30;;
52268;SDS011;38224;50.950;4.100;2023-04-25T03:24:47;28.37;;;6.60;;
52268;SDS011;38224;50.950;4.100;2023-04-25T03:27:12;26.93;;;6.37;;
52268;SDS011;38224;50.950;4.100;2023-04-25T03:29:38;32.97;;;7.85;;
52268;SDS011;38224;50.950;4.100;2023-04-25T03:32:03;28.83;;;7.27;;
52268;SDS011;38224;50.950;4.100;2023-04-25T03:34:28;23.42;;;5.47;;
52268;SDS011;38224;50.950;4.100;2023-04-25T03:36:54;26.88;;;6.57;;
52268;SDS011;38224;50.950;4.100;2023-04-25T03:39:19;28.70;;;6.17;;
52268;SDS011;38224;50.950;4.100;2023-04-25T03:41:44;33.95;;;6.80;;
52268;SDS011;38224;50.950;4.100;2023-04-25T03:44:09;40.93;;;8.20;;
52268;SDS011;38224;50.950;4.100;2023-04-25T03:46:35;29.10;;;7.33;;
52268;SDS011;38224;50.950;4.100;2023-04-25T03:49:00;34.15;;;6.93;;
52268;SDS011;38224;50.950;4.100;2023-04-25T03:51:25;34.08;;;7.70;;
52268;SDS011;38224;50.950;4.100;2023-04-25T03:53:51;28.38;;;6.32;;
52268;SDS011;38224;50.950;4.100;2023-04-25T03:56:16;31.08;;;6.55;;
52268;SDS011;38224;50.950;4.100;2023-04-25T03:58:41;32.40;;;7.47;;
52268;SDS011;38224;50.950;4.100;2023-04-25T04:01:07;29.63;;;6.23;;
52268;SDS011;38224;50.950;4.100;2023-04-25T04:03:33;37.60;;;6.95;;
52268;SDS011;38224;50.950;4.100;2023-04-25T04:05:59;40.67;;;8.70;;
52268;SDS011;38224;50.950;4.100;2023-04-25T04:08:24;36.90;;;7.38;;
52268;SDS011;38224;50.950;4.100;2023-04-25T04:10:50;28.50;;;7.27;;
52268;SDS011;38224;50.950;4.100;2023-04-25T04:13:15;38.70;;;7.18;;
52268;SDS011;38224;50.950;4.100;2023-04-25T04:15:40;31.93;;;8.20;;
52268;SDS011;38224;50.950;4.100;2023-04-25T04:18:06;20.60;;;5.97;;
52268;SDS011;38224;50.950;4.100;2023-04-25T04:20:31;25.73;;;6.50;;
52268;SDS011;38224;50.950;4.100;2023-04-25T04:22:56;25.57;;;7.07;;
52268;SDS011;38224;50.950;4.100;2023-04-25T04:25:21;19.40;;;4.97;;
52268;SDS011;38224;50.950;4.100;2023-04-25T04:27:47;19.53;;;4.97;;
52268;SDS011;38224;50.950;4.100;2023-04-25T04:30:12;30.58;;;6.60;;
52268;SDS011;38224;50.950;4.100;2023-04-25T04:32:37;20.23;;;5.40;;
52268;SDS011;38224;50.950;4.100;2023-04-25T04:35:03;26.55;;;5.82;;
52268;SDS011;38224;50.950;4.100;2023-04-25T04:37:29;25.98;;;6.07;;
52268;SDS011;38224;50.950;4.100;2023-04-25T04:39:55;18.50;;;5.70;;
52268;SDS011;38224;50.950;4.100;2023-04-25T04:42:20;29.90;;;9.43;;
52268;SDS011;38224;50.950;4.100;2023-04-25T04:44:46;30.50;;;9.48;;
52268;SDS011;38224;50.950;4.100;2023-04-25T04:47:11;33.67;;;12.37;;
52268;SDS011;38224;50.950;4.100;2023-04-25T04:49:39;29.10;;;8.05;;
52268;SDS011;38224;50.950;4.100;2023-04-25T04:52:04;22.00;;;5.43;;
52268;SDS011;38224;50.950;4.100;2023-04-25T04:54:30;20.00;;;4.60;;
52268;SDS011;38224;50.950;4.100;2023-04-25T04:56:55;17.80;;;4.90;;
52268;SDS011;38224;50.950;4.100;2023-04-25T04:59:21;24.40;;;5.18;;
52268;SDS011;38224;50.950;4.100;2023-04-25T05:01:46;20.73;;;5.32;;
52268;SDS011;38224;50.950;4.100;2023-04-25T05:04:11;15.23;;;4.28;;
52268;SDS011;38224;50.950;4.100;2023-04-25T05:06:37;14.27;;;4.45;;
52268;SDS011;38224;50.950;4.100;2023-04-25T05:09:02;16.93;;;5.10;;
52268;SDS011;38224;50.950;4.100;2023-04-25T05:11:27;13.25;;;4.47;;
52268;SDS011;38224;50.950;4.100;2023-04-25T05:13:53;13.80;;;5.13;;
52268;SDS011;38224;50.950;4.100;2023-04-25T05:16:18;24.80;;;5.90;;
52268;SDS011;38224;50.950;4.100;2023-04-25T05:18:43;20.75;;;5.72;;
52268;SDS011;38224;50.950;4.100;2023-04-25T05:21:09;17.00;;;5.20;;
52268;SDS011;38224;50.950;4.100;2023-04-25T05:23:34;20.70;;;5.83;;
52268;SDS011;38224;50.950;4.100;2023-04-25T05:25:59;16.50;;;5.13;;
52268;SDS011;38224;50.950;4.100;2023-04-25T05:28:25;18.50;;;5.25;;
52268;SDS011;38224;50.950;4.100;2023-04-25T05:30:50;15.52;;;5.38;;
52268;SDS011;38224;50.950;4.100;2023-04-25T05:33:15;25.80;;;6.72;;
52268;SDS011;38224;50.950;4.100;2023-04-25T05:35:41;19.27;;;5.80;;
52268;SDS011;38224;50.950;4.100;2023-04-25T05:38:06;21.23;;;6.55;;
52268;SDS011;38224;50.950;4.100;2023-04-25T05:40:31;23.73;;;6.18;;
52268;SDS011;38224;50.950;4.100;2023-04-25T05:42:57;17.45;;;5.57;;
52268;SDS011;38224;50.950;4.100;2023-04-25T05:45:22;22.83;;;6.15;;
52268;SDS011;38224;50.950;4.100;2023-04-25T05:47:47;16.17;;;5.20;;
52268;SDS011;38224;50.950;4.100;2023-04-25T05:50:12;27.70;;;6.72;;
52268;SDS011;38224;50.950;4.100;2023-04-25T05:52:38;22.77;;;6.55;;
52268;SDS011;38224;50.950;4.100;2023-04-25T05:55:03;22.30;;;5.88;;
52268;SDS011;38224;50.950;4.100;2023-04-25T05:57:29;27.05;;;5.72;;
52268;SDS011;38224;50.950;4.100;2023-04-25T05:59:54;20.27;;;5.80;;
52268;SDS011;38224;50.950;4.100;2023-04-25T06:02:20;20.98;;;5.07;;
52268;SDS011;38224;50.950;4.100;2023-04-25T06:04:51;26.70;;;5.55;;
52268;SDS011;38224;50.950;4.100;2023-04-25T06:07:17;26.52;;;7.47;;
52268;SDS011;38224;50.950;4.100;2023-04-25T06:09:43;21.98;;;5.28;;
52268;SDS011;38224;50.950;4.100;2023-04-25T06:12:08;18.08;;;5.15;;
52268;SDS011;38224;50.950;4.100;2023-04-25T06:14:33;17.30;;;4.68;;
52268;SDS011;38224;50.950;4.100;2023-04-25T06:16:59;23.20;;;5.63;;
52268;SDS011;38224;50.950;4.100;2023-04-25T06:19:24;18.52;;;5.10;;
52268;SDS011;38224;50.950;4.100;2023-04-25T06:21:50;18.50;;;4.63;;
52268;SDS011;38224;50.950;4.100;2023-04-25T06:24:15;24.65;;;5.10;;
52268;SDS011;38224;50.950;4.100;2023-04-25T06:26:40;22.17;;;5.35;;
52268;SDS011;38224;50.950;4.100;2023-04-25T06:29:05;18.13;;;4.55;;
52268;SDS011;38224;50.950;4.100;2023-04-25T06:31:31;26.33;;;5.85;;
52268;SDS011;38224;50.950;4.100;2023-04-25T06:33:59;29.33;;;4.60;;
52268;SDS011;38224;50.950;4.100;2023-04-25T06:36:24;19.45;;;4.93;;
52268;SDS011;38224;50.950;4.100;2023-04-25T06:38:51;19.20;;;5.20;;
52268;SDS011;38224;50.950;4.100;2023-04-25T06:41:17;19.73;;;5.40;;
52268;SDS011;38224;50.950;4.100;2023-04-25T06:43:42;14.82;;;4.18;;
52268;SDS011;38224;50.950;4.100;2023-04-25T06:46:08;17.75;;;4.43;;
52268;SDS011;38224;50.950;4.100;2023-04-25T06:48:33;22.53;;;4.63;;
52268;SDS011;38224;50.950;4.100;2023-04-25T06:50:58;22.83;;;5.80;;
52268;SDS011;38224;50.950;4.100;2023-04-25T06:53:24;19.23;;;4.47;;
52268;SDS011;38224;50.950;4.100;2023-04-25T06:55:49;22.15;;;5.78;;
52268;SDS011;38224;50.950;4.100;2023-04-25T06:58:14;17.55;;;4.70;;
52268;SDS011;38224;50.950;4.100;2023-04-25T07:00:40;17.10;;;4.32;;
52268;SDS011;38224;50.950;4.100;2023-04-25T07:03:05;21.13;;;4.10;;
52268;SDS011;38224;50.950;4.100;2023-04-25T07:05:30;14.85;;;4.18;;
52268;SDS011;38224;50.950;4.100;2023-04-25T07:07:56;12.87;;;4.20;;
52268;SDS011;38224;50.950;4.100;2023-04-25T07:10:21;17.80;;;4.33;;
52268;SDS011;38224;50.950;4.100;2023-04-25T07:12:46;17.10;;;3.90;;
52268;SDS011;38224;50.950;4.100;2023-04-25T07:15:11;14.00;;;3.50;;
52268;SDS011;38224;50.950;4.100;2023-04-25T07:17:37;12.80;;;3.38;;
52268;SDS011;38224;50.950;4.100;2023-04-25T07:20:03;16.50;;;4.47;;
52268;SDS011;38224;50.950;4.100;2023-04-25T07:22:28;18.63;;;4.82;;
52268;SDS011;38224;50.950;4.100;2023-04-25T07:24:54;22.58;;;4.45;;
52268;SDS011;38224;50.950;4.100;2023-04-25T07:27:20;16.27;;;4.20;;
52268;SDS011;38224;50.950;4.100;2023-04-25T07:29:45;21.43;;;4.70;;
52268;SDS011;38224;50.950;4.100;2023-04-25T07:32:11;14.38;;;4.93;;
52268;SDS011;38224;50.950;4.100;2023-04-25T07:34:38;14.02;;;3.45;;
52268;SDS011;38224;50.950;4.100;2023-04-25T07:37:04;13.98;;;3.67;;
52268;SDS011;38224;50.950;4.100;2023-04-25T07:39:29;16.70;;;3.92;;
52268;SDS011;38224;50.950;4.100;2023-04-25T07:41:54;17.10;;;4.97;;
52268;SDS011;38224;50.950;4.100;2023-04-25T07:44:20;16.13;;;3.50;;
52268;SDS011;38224;50.950;4.100;2023-04-25T07:46:45;14.15;;;4.07;;
52268;SDS011;38224;50.950;4.100;2023-04-25T07:49:10;17.80;;;4.35;;
52268;SDS011;38224;50.950;4.100;2023-04-25T07:51:36;15.40;;;4.38;;
52268;SDS011;38224;50.950;4.100;2023-04-25T07:54:01;23.42;;;3.90;;
52268;SDS011;38224;50.950;4.100;2023-04-25T07:56:26;12.25;;;2.97;;
52268;SDS011;38224;50.950;4.100;2023-04-25T07:58:52;19.27;;;3.25;;
52268;SDS011;38224;50.950;4.100;2023-04-25T08:01:17;10.45;;;2.50;;
52268;SDS011;38224;50.950;4.100;2023-04-25T08:03:43;7.97;;;2.45;;
52268;SDS011;38224;50.950;4.100;2023-04-25T08:06:09;18.23;;;3.10;;
52268;SDS011;38224;50.950;4.100;2023-04-25T08:08:34;10.03;;;2.83;;
52268;SDS011;38224;50.950;4.100;2023-04-25T08:10:59;12.88;;;3.95;;
52268;SDS011;38224;50.950;4.100;2023-04-25T08:13:25;12.15;;;2.75;;
52268;SDS011;38224;50.950;4.100;2023-04-25T08:15:50;11.30;;;2.42;;
52268;SDS011;38224;50.950;4.100;2023-04-25T08:18:15;11.27;;;2.65;;
52268;SDS011;38224;50.950;4.100;2023-04-25T08:20:41;11.45;;;3.90;;
52268;SDS011;38224;50.950;4.100;2023-04-25T08:23:06;10.60;;;2.60;;
52268;SDS011;38224;50.950;4.100;2023-04-25T08:25:32;14.93;;;3.05;;
52268;SDS011;38224;50.950;4.100;2023-04-25T08:27:57;10.38;;;3.45;;
52268;SDS011;38224;50.950;4.100;2023-04-25T08:30:24;14.57;;;3.22;;
52268;SDS011;38224;50.950;4.100;2023-04-25T08:32:49;16.15;;;4.32;;
52268;SDS011;38224;50.950;4.100;2023-04-25T08:35:14;10.30;;;2.90;;
52268;SDS011;38224;50.950;4.100;2023-04-25T08:37:41;15.60;;;3.92;;
52268;SDS011;38224;50.950;4.100;2023-04-25T08:40:06;13.87;;;3.83;;
52268;SDS011;38224;50.950;4.100;2023-04-25T08:42:36;14.82;;;4.13;;
52268;SDS011;38224;50.950;4.100;2023-04-25T08:45:02;12.15;;;2.90;;
52268;SDS011;38224;50.950;4.100;2023-04-25T08:47:28;17.15;;;3.85;;
52268;SDS011;38224;50.950;4.100;2023-04-25T08:49:54;10.07;;;2.80;;
52268;SDS011;38224;50.950;4.100;2023-04-25T08:52:23;13.40;;;3.25;;
52268;SDS011;38224;50.950;4.100;2023-04-25T08:54:49;11.07;;;2.95;;
52268;SDS011;38224;50.950;4.100;2023-04-25T08:57:16;11.27;;;2.60;;
52268;SDS011;38224;50.950;4.100;2023-04-25T08:59:42;12.20;;;2.58;;
52268;SDS011;38224;50.950;4.100;2023-04-25T09:02:10;16.20;;;3.15;;
52268;SDS011;38224;50.950;4.100;2023-04-25T09:04:39;12.30;;;2.63;;
52268;SDS011;38224;50.950;4.100;2023-04-25T09:07:04;10.77;;;2.20;;
52268;SDS011;38224;50.950;4.100;2023-04-25T09:09:30;15.60;;;2.22;;
52268;SDS011;38224;50.950;4.100;2023-04-25T09:11:55;8.15;;;2.00;;
52268;SDS011;38224;50.950;4.100;2023-04-25T09:14:22;13.63;;;2.20;;
52268;SDS011;38224;50.950;4.100;2023-04-25T09:16:57;9.93;;;2.25;;
52268;SDS011;38224;50.950;4.100;2023-04-25T09:19:31;12.32;;;2.20;;
52268;SDS011;38224;50.950;4.100;2023-04-25T09:21:57;7.90;;;2.00;;
52268;SDS011;38224;50.950;4.100;2023-04-25T09:26:57;6.18;;;1.90;;
52268;SDS011;38224;50.950;4.100;2023-04-25T09:29:28;5.68;;;1.85;;
52268;SDS011;38224;50.950;4.100;2023-04-25T09:32:03;3.03;;;1.52;;
52268;SDS011;38224;50.950;4.100;2023-04-25T09:34:42;4.35;;;1.30;;
52268;SDS011;38224;50.950;4.100;2023-04-25T09:37:11;6.35;;;1.65;;
52268;SDS011;38224;50.950;4.100;2023-04-25T09:39:37;5.15;;;1.48;;
52268;SDS011;38224;50.950;4.100;2023-04-25T09:42:03;7.20;;;1.80;;
52268;SDS011;38224;50.950;4.100;2023-04-25T09:44:28;4.63;;;1.95;;
52268;SDS011;38224;50.950;4.100;2023-04-25T09:46:53;8.23;;;1.63;;
52268;SDS011;38224;50.950;4.100;2023-04-25T09:49:22;5.70;;;2.05;;
52268;SDS011;38224;50.950;4.100;2023-04-25T09:51:57;7.13;;;1.75;;
52268;SDS011;38224;50.950;4.100;2023-04-25T09:54:25;7.85;;;1.75;;
52268;SDS011;38224;50.950;4.100;2023-04-25T09:56:52;6.55;;;2.13;;
52268;SDS011;38224;50.950;4.100;2023-04-25T09:59:21;6.53;;;1.90;;
52268;SDS011;38224;50.950;4.100;2023-04-25T10:01:49;6.45;;;1.67;;
52268;SDS011;38224;50.950;4.100;2023-04-25T10:04:24;7.00;;;2.08;;
52268;SDS011;38224;50.950;4.100;2023-04-25T10:06:51;11.77;;;2.25;;
52268;SDS011;38224;50.950;4.100;2023-04-25T10:09:18;11.13;;;2.05;;
52268;SDS011;38224;50.950;4.100;2023-04-25T10:11:48;5.82;;;1.63;;
52268;SDS011;38224;50.950;4.100;2023-04-25T10:14:13;11.77;;;1.83;;
52268;SDS011;38224;50.950;4.100;2023-04-25T10:16:40;9.63;;;2.00;;
52268;SDS011;38224;50.950;4.100;2023-04-25T10:19:06;9.55;;;2.03;;
52268;SDS011;38224;50.950;4.100;2023-04-25T10:21:32;8.88;;;1.80;;
52268;SDS011;38224;50.950;4.100;2023-04-25T10:23:58;9.73;;;2.47;;
52268;SDS011;38224;50.950;4.100;2023-04-25T10:26:24;5.75;;;1.80;;
52268;SDS011;38224;50.950;4.100;2023-04-25T10:29:00;10.05;;;2.10;;
52268;SDS011;38224;50.950;4.100;2023-04-25T10:31:26;9.20;;;2.00;;
52268;SDS011;38224;50.950;4.100;2023-04-25T10:33:51;5.13;;;1.48;;
52268;SDS011;38224;50.950;4.100;2023-04-25T10:36:23;8.13;;;1.90;;
52268;SDS011;38224;50.950;4.100;2023-04-25T10:38:49;8.20;;;1.98;;
52268;SDS011;38224;50.950;4.100;2023-04-25T10:41:18;9.32;;;2.75;;
52268;SDS011;38224;50.950;4.100;2023-04-25T10:43:44;9.45;;;2.70;;
52268;SDS011;38224;50.950;4.100;2023-04-25T10:48:38;8.60;;;1.90;;
52268;SDS011;38224;50.950;4.100;2023-04-25T10:51:14;4.18;;;1.50;;
52268;SDS011;38224;50.950;4.100;2023-04-25T10:53:40;3.03;;;1.58;;
52268;SDS011;38224;50.950;4.100;2023-04-25T10:56:16;6.57;;;1.80;;
52268;SDS011;38224;50.950;4.100;2023-04-25T10:58:42;7.68;;;2.00;;
52268;SDS011;38224;50.950;4.100;2023-04-25T11:01:08;3.60;;;1.73;;
52268;SDS011;38224;50.950;4.100;2023-04-25T11:03:37;7.10;;;1.63;;
52268;SDS011;38224;50.950;4.100;2023-04-25T11:06:03;8.18;;;2.20;;
52268;SDS011;38224;50.950;4.100;2023-04-25T11:08:35;5.13;;;1.55;;
52268;SDS011;38224;50.950;4.100;2023-04-25T11:11:02;7.63;;;2.38;;
52268;SDS011;38224;50.950;4.100;2023-04-25T11:13:30;6.70;;;1.83;;
52268;SDS011;38224;50.950;4.100;2023-04-25T11:15:56;5.90;;;1.80;;
52268;SDS011;38224;50.950;4.100;2023-04-25T11:18:21;9.57;;;1.92;;
52268;SDS011;38224;50.950;4.100;2023-04-25T11:20:47;5.65;;;2.25;;
52268;SDS011;38224;50.950;4.100;2023-04-25T11:23:13;4.07;;;1.65;;
52268;SDS011;38224;50.950;4.100;2023-04-25T11:25:38;5.18;;;1.75;;
52268;SDS011;38224;50.950;4.100;2023-04-25T11:28:04;5.72;;;1.60;;
52268;SDS011;38224;50.950;4.100;2023-04-25T11:30:29;5.20;;;2.08;;
52268;SDS011;38224;50.950;4.100;2023-04-25T11:32:55;4.72;;;1.52;;
52268;SDS011;38224;50.950;4.100;2023-04-25T11:35:21;4.47;;;1.48;;
52268;SDS011;38224;50.950;4.100;2023-04-25T11:37:48;5.53;;;1.30;;
52268;SDS011;38224;50.950;4.100;2023-04-25T11:40:13;6.85;;;1.63;;
52268;SDS011;38224;50.950;4.100;2023-04-25T11:42:42;6.03;;;1.50;;
52268;SDS011;38224;50.950;4.100;2023-04-25T11:45:08;6.38;;;1.75;;
52268;SDS011;38224;50.950;4.100;2023-04-25T11:47:34;3.47;;;1.42;;
52268;SDS011;38224;50.950;4.100;2023-04-25T11:50:00;4.82;;;1.50;;
52268;SDS011;38224;50.950;4.100;2023-04-25T11:52:42;4.57;;;1.40;;
52268;SDS011;38224;50.950;4.100;2023-04-25T11:55:14;5.13;;;1.58;;
52268;SDS011;38224;50.950;4.100;2023-04-25T11:57:40;3.00;;;1.40;;
52268;SDS011;38224;50.950;4.100;2023-04-25T12:02:32;6.30;;;1.52;;
52268;SDS011;38224;50.950;4.100;2023-04-25T12:04:59;9.48;;;1.65;;
52268;SDS011;38224;50.950;4.100;2023-04-25T12:07:28;6.47;;;1.98;;
52268;SDS011;38224;50.950;4.100;2023-04-25T12:09:54;8.63;;;2.00;;
52268;SDS011;38224;50.950;4.100;2023-04-25T12:12:19;4.28;;;1.58;;
52268;SDS011;38224;50.950;4.100;2023-04-25T12:14:46;10.55;;;2.25;;
52268;SDS011;38224;50.950;4.100;2023-04-25T12:17:12;11.13;;;2.30;;
52268;SDS011;38224;50.950;4.100;2023-04-25T12:19:38;6.57;;;1.95;;
52268;SDS011;38224;50.950;4.100;2023-04-25T12:22:19;8.63;;;2.17;;
52268;SDS011;38224;50.950;4.100;2023-04-25T12:24:45;5.07;;;1.77;;
52268;SDS011;38224;50.950;4.100;2023-04-25T12:27:10;4.72;;;1.42;;
52268;SDS011;38224;50.950;4.100;2023-04-25T12:29:35;6.20;;;1.43;;
52268;SDS011;38224;50.950;4.100;2023-04-25T12:32:01;7.47;;;1.55;;
52268;SDS011;38224;50.950;4.100;2023-04-25T12:34:28;7.63;;;2.20;;
52268;SDS011;38224;50.950;4.100;2023-04-25T12:36:54;7.90;;;1.92;;
52268;SDS011;38224;50.950;4.100;2023-04-25T12:39:20;10.75;;;2.30;;
52268;SDS011;38224;50.950;4.100;2023-04-25T12:41:47;6.93;;;1.58;;
52268;SDS011;38224;50.950;4.100;2023-04-25T12:44:12;6.30;;;1.80;;
52268;SDS011;38224;50.950;4.100;2023-04-25T12:46:38;10.40;;;2.03;;
52268;SDS011;38224;50.950;4.100;2023-04-25T12:49:04;10.10;;;2.38;;
52268;SDS011;38224;50.950;4.100;2023-04-25T12:51:29;9.38;;;1.90;;
52268;SDS011;38224;50.950;4.100;2023-04-25T12:53:55;6.68;;;2.33;;
52268;SDS011;38224;50.950;4.100;2023-04-25T12:56:20;6.63;;;2.00;;
52268;SDS011;38224;50.950;4.100;2023-04-25T12:58:45;9.15;;;2.22;;
52268;SDS011;38224;50.950;4.100;2023-04-25T13:01:11;11.50;;;2.35;;
52268;SDS011;38224;50.950;4.100;2023-04-25T13:03:38;7.93;;;2.30;;
52268;SDS011;38224;50.950;4.100;2023-04-25T13:06:04;9.43;;;2.35;;
52268;SDS011;38224;50.950;4.100;2023-04-25T13:08:30;7.05;;;2.10;;
52268;SDS011;38224;50.950;4.100;2023-04-25T13:10:55;6.65;;;2.22;;
52268;SDS011;38224;50.950;4.100;2023-04-25T13:13:21;13.70;;;2.23;;
52268;SDS011;38224;50.950;4.100;2023-04-25T13:15:46;9.30;;;3.10;;
52268;SDS011;38224;50.950;4.100;2023-04-25T13:18:11;5.15;;;1.75;;
52268;SDS011;38224;50.950;4.100;2023-04-25T13:20:37;8.83;;;2.47;;
52268;SDS011;38224;50.950;4.100;2023-04-25T13:23:02;7.25;;;2.05;;
52268;SDS011;38224;50.950;4.100;2023-04-25T13:25:27;10.10;;;2.70;;
52268;SDS011;38224;50.950;4.100;2023-04-25T13:27:52;13.93;;;1.77;;
52268;SDS011;38224;50.950;4.100;2023-04-25T13:30:18;11.37;;;2.47;;
52268;SDS011;38224;50.950;4.100;2023-04-25T13:32:43;5.97;;;2.05;;
52268;SDS011;38224;50.950;4.100;2023-04-25T13:35:10;9.48;;;2.50;;
52268;SDS011;38224;50.950;4.100;2023-04-25T13:37:35;9.90;;;1.88;;
52268;SDS011;38224;50.950;4.100;2023-04-25T13:40:02;8.73;;;1.95;;
52268;SDS011;38224;50.950;4.100;2023-04-25T13:42:29;5.97;;;1.42;;
52268;SDS011;38224;50.950;4.100;2023-04-25T13:44:55;8.35;;;2.03;;
52268;SDS011;38224;50.950;4.100;2023-04-25T13:47:20;13.23;;;2.50;;
52268;SDS011;38224;50.950;4.100;2023-04-25T13:49:45;10.07;;;2.17;;
52268;SDS011;38224;50.950;4.100;2023-04-25T13:52:11;9.27;;;2.23;;
52268;SDS011;38224;50.950;4.100;2023-04-25T13:54:36;11.53;;;2.47;;
52268;SDS011;38224;50.950;4.100;2023-04-25T13:57:01;11.23;;;1.93;;
52268;SDS011;38224;50.950;4.100;2023-04-25T13:59:27;6.47;;;1.90;;
52268;SDS011;38224;50.950;4.100;2023-04-25T14:01:52;6.82;;;1.88;;
52268;SDS011;38224;50.950;4.100;2023-04-25T14:04:17;9.80;;;3.93;;
52268;SDS011;38224;50.950;4.100;2023-04-25T14:06:42;5.20;;;1.87;;
52268;SDS011;38224;50.950;4.100;2023-04-25T14:09:08;8.57;;;2.20;;
52268;SDS011;38224;50.950;4.100;2023-04-25T14:11:38;10.35;;;2.03;;
52268;SDS011;38224;50.950;4.100;2023-04-25T14:14:03;11.32;;;2.20;;
52268;SDS011;38224;50.950;4.100;2023-04-25T14:16:29;6.25;;;2.47;;
52268;SDS011;38224;50.950;4.100;2023-04-25T14:18:55;8.52;;;2.40;;
52268;SDS011;38224;50.950;4.100;2023-04-25T14:21:20;9.02;;;1.95;;
52268;SDS011;38224;50.950;4.100;2023-04-25T14:23:46;8.05;;;1.65;;
52268;SDS011;38224;50.950;4.100;2023-04-25T14:26:11;7.95;;;1.80;;
52268;SDS011;38224;50.950;4.100;2023-04-25T14:28:37;7.25;;;1.90;;
52268;SDS011;38224;50.950;4.100;2023-04-25T14:31:02;6.97;;;1.70;;
52268;SDS011;38224;50.950;4.100;2023-04-25T14:33:28;3.53;;;1.53;;
52268;SDS011;38224;50.950;4.100;2023-04-25T14:35:53;6.03;;;1.65;;
52268;SDS011;38224;50.950;4.100;2023-04-25T14:38:18;7.55;;;1.80;;